Time;durP1;ratioP1;P1;durP2;ratioP2;P2;SDS_P1;SDS_P2;PMS_P1;PMS_P2;Temp;Humidity;BMP_temperature;BMP_pressure;BME280_temperature;BME280_humidity;BME280_pressure;Samples;Min_cycle;Max_cycle;Signal;HPM_P1;HPM_P2
2023/07/26 00:00:35;;;;;;;2.70;0.90;;;;;;;17.69;65.11;100858.38;7366636;19;20333;-62
2023/07/26 00:03:02;;;;;;;4.90;0.90;;;;;;;17.65;64.82;100853.66;7363882;19;20081;-62
2023/07/26 00:05:30;;;;;;;4.80;0.80;;;;;;;17.60;65.06;100861.41;7359749;19;20018;-63
2023/07/26 00:07:57;;;;;;;2.75;0.77;;;;;;;17.57;65.52;100861.78;7361735;19;20404;-65
2023/07/26 00:10:24;;;;;;;3.30;0.80;;;;;;;17.52;65.67;100868.50;7360947;19;20025;-63
2023/07/26 00:12:52;;;;;;;4.20;0.98;;;;;;;17.51;65.87;100866.88;7363443;19;20018;-62
2023/07/26 00:15:19;;;;;;;2.35;0.90;;;;;;;17.49;65.63;100871.56;7363568;19;21774;-63
2023/07/26 00:17:46;;;;;;;2.40;0.80;;;;;;;17.49;66.05;100860.91;7361202;19;20015;-63
2023/07/26 00:20:13;;;;;;;2.63;0.80;;;;;;;17.51;66.33;100874.03;7363659;19;20015;-61
2023/07/26 00:22:40;;;;;;;3.22;1.10;;;;;;;17.49;65.78;100871.56;7362720;19;20010;-61
2023/07/26 00:25:09;;;;;;;2.78;1.00;;;;;;;17.48;65.48;100875.25;7361460;19;20002;-61
2023/07/26 00:27:36;;;;;;;1.98;0.70;;;;;;;17.48;65.66;100874.41;7361780;19;20018;-62
2023/07/26 00:30:03;;;;;;;3.83;1.00;;;;;;;17.49;65.95;100868.06;7362342;19;20022;-62
2023/07/26 00:32:30;;;;;;;2.75;0.60;;;;;;;17.45;65.70;100872.16;7362617;19;20114;-62
2023/07/26 00:34:57;;;;;;;4.38;0.70;;;;;;;17.42;66.07;100868.03;7359949;19;20018;-62
2023/07/26 00:37:24;;;;;;;3.50;1.00;;;;;;;17.40;66.23;100870.09;7358492;19;20549;-62
2023/07/26 00:39:51;;;;;;;2.13;0.80;;;;;;;17.35;65.74;100872.50;7360603;19;20608;-62
2023/07/26 00:42:19;;;;;;;3.10;0.85;;;;;;;17.31;66.37;100873.94;7358807;19;20039;-63
2023/07/26 00:44:46;;;;;;;2.67;0.88;;;;;;;17.29;65.98;100867.16;7350860;19;20070;-62
2023/07/26 00:47:13;;;;;;;3.13;0.98;;;;;;;17.25;66.18;100874.72;7360230;19;20010;-62
2023/07/26 00:49:41;;;;;;;5.28;1.17;;;;;;;17.21;66.59;100873.47;7362432;19;20314;-62
2023/07/26 00:52:11;;;;;;;3.92;1.05;;;;;;;17.19;66.94;100875.47;7361517;19;20014;-62
2023/07/26 00:54:38;;;;;;;4.70;1.05;;;;;;;17.17;66.78;100879.38;7359628;19;20511;-62
2023/07/26 00:57:06;;;;;;;3.88;1.10;;;;;;;17.14;67.29;100880.56;7361462;19;20018;-62
2023/07/26 00:59:33;;;;;;;3.28;0.90;;;;;;;17.11;67.03;100878.28;7360062;19;20368;-62
2023/07/26 01:02:00;;;;;;;5.25;1.13;;;;;;;17.08;67.33;100878.66;7362724;19;20021;-62
2023/07/26 01:04:27;;;;;;;3.78;0.90;;;;;;;17.06;67.76;100881.53;7361615;19;20026;-63
2023/07/26 01:07:08;;;;;;;7.32;1.30;;;;;;;17.09;67.82;100885.63;7355617;19;20010;-62
2023/07/26 01:09:47;;;;;;;5.10;1.23;;;;;;;17.10;67.96;100877.47;7334162;19;20014;-62
2023/07/26 01:12:37;;;;;;;8.65;1.23;;;;;;;17.08;68.08;100884.81;7359621;19;20037;-64
2023/07/26 01:15:11;;;;;;;4.15;1.20;;;;;;;17.08;68.16;100876.00;7361166;19;20093;-62
2023/07/26 01:17:38;;;;;;;5.80;1.27;;;;;;;17.08;68.20;100884.00;7359850;19;20423;-63
2023/07/26 01:20:05;;;;;;;3.42;1.20;;;;;;;17.05;68.39;100879.91;7362025;19;20407;-62
2023/07/26 01:22:33;;;;;;;7.60;1.50;;;;;;;17.02;68.39;100877.59;7361721;19;20018;-62
2023/07/26 01:25:00;;;;;;;4.25;1.30;;;;;;;16.98;68.62;100872.88;7358365;19;20048;-62
2023/07/26 01:27:27;;;;;;;4.45;1.17;;;;;;;16.96;68.69;100870.44;7361206;19;20018;-63
2023/07/26 01:29:56;;;;;;;3.78;1.50;;;;;;;16.96;68.85;100870.44;7360322;19;20018;-63
2023/07/26 01:32:27;;;;;;;4.13;1.40;;;;;;;16.97;69.04;100868.56;7359475;19;20703;-63
2023/07/26 01:34:54;;;;;;;3.17;1.25;;;;;;;16.96;68.64;100870.44;7359899;19;20015;-63
2023/07/26 01:37:23;;;;;;;6.97;1.50;;;;;;;16.90;69.12;100865.06;7358704;19;20022;-63
2023/07/26 01:39:51;;;;;;;4.53;1.33;;;;;;;16.90;69.26;100868.53;7353266;19;20014;-63
2023/07/26 01:42:19;;;;;;;4.95;1.90;;;;;;;16.91;69.07;100869.34;7360882;19;20014;-62
2023/07/26 01:44:46;;;;;;;6.03;1.98;;;;;;;16.89;68.78;100866.88;7358598;19;20030;-63
2023/07/26 01:47:13;;;;;;;4.72;1.63;;;;;;;16.91;69.23;100864.88;7358487;19;20054;-63
2023/07/26 01:49:40;;;;;;;6.93;1.85;;;;;;;16.89;68.89;100858.91;7360079;19;20042;-62
2023/07/26 01:52:07;;;;;;;3.85;1.65;;;;;;;16.84;68.89;100861.31;7359570;19;20047;-62
2023/07/26 01:54:34;;;;;;;6.50;1.80;;;;;;;16.83;69.53;100862.34;7356659;19;20006;-62
2023/07/26 01:57:01;;;;;;;7.05;1.83;;;;;;;16.83;69.61;100869.47;7358816;19;20097;-63
2023/07/26 01:59:28;;;;;;;5.70;1.75;;;;;;;16.80;69.50;100852.09;7356820;19;20010;-61
2023/07/26 02:01:55;;;;;;;5.53;1.70;;;;;;;16.78;69.78;100859.44;7360624;19;20901;-61
2023/07/26 02:04:24;;;;;;;5.60;1.67;;;;;;;16.76;70.17;100850.81;7358778;19;20021;-63
2023/07/26 02:06:51;;;;;;;5.65;1.60;;;;;;;16.76;69.97;100850.03;7358490;19;20015;-63
2023/07/26 02:09:18;;;;;;;5.40;1.60;;;;;;;16.77;70.42;100851.63;7349637;19;20034;-63
2023/07/26 02:11:45;;;;;;;5.13;1.40;;;;;;;16.80;69.99;100852.09;7359689;19;20015;-63
2023/07/26 02:14:14;;;;;;;6.38;1.50;;;;;;;16.80;69.99;100848.63;7357565;19;20010;-63
2023/07/26 02:16:40;;;;;;;8.48;1.83;;;;;;;16.78;70.17;100847.97;7358545;19;20023;-64
2023/07/26 02:19:08;;;;;;;9.95;1.50;;;;;;;16.74;70.43;100849.38;7354743;19;20086;-63
2023/07/26 02:21:35;;;;;;;6.45;1.90;;;;;;;16.70;70.20;100848.94;7361269;19;20325;-63
2023/07/26 02:24:02;;;;;;;4.45;1.48;;;;;;;16.68;70.56;100849.13;7355800;19;20018;-62
2023/07/26 02:26:30;;;;;;;7.15;1.52;;;;;;;16.66;70.83;100843.19;7360478;19;20015;-62
2023/07/26 02:28:57;;;;;;;4.90;1.20;;;;;;;16.69;71.06;100847.31;7357329;19;20018;-62
2023/07/26 02:31:24;;;;;;;3.38;1.40;;;;;;;16.73;71.19;100847.72;7354632;19;20527;-63
2023/07/26 02:33:51;;;;;;;5.75;1.50;;;;;;;16.74;70.73;100846.72;7355563;19;20086;-62
2023/07/26 02:36:19;;;;;;;5.20;1.52;;;;;;;16.74;70.77;100839.56;7355646;19;20050;-65
2023/07/26 02:38:46;;;;;;;5.90;1.73;;;;;;;16.73;70.42;100837.09;7353479;19;20078;-62
2023/07/26 02:41:13;;;;;;;3.80;1.05;;;;;;;16.73;70.85;100839.75;7358653;19;20065;-62
2023/07/26 02:43:40;;;;;;;7.93;1.17;;;;;;;16.68;71.33;100835.84;7357387;19;20014;-62
2023/07/26 02:46:08;;;;;;;3.80;0.80;;;;;;;16.67;71.05;100849.31;7358669;19;20014;-62
2023/07/26 02:48:36;;;;;;;4.40;1.10;;;;;;;16.60;70.62;100841.31;7359571;19;20030;-62
2023/07/26 02:51:03;;;;;;;3.72;0.88;;;;;;;16.57;70.99;100836.34;7363419;19;20014;-61
2023/07/26 02:53:30;;;;;;;7.72;3.13;;;;;;;16.55;70.96;100834.91;7366041;19;20022;-62
2023/07/26 02:55:57;;;;;;;4.40;1.20;;;;;;;16.51;71.33;100833.59;7362261;19;20024;-62
2023/07/26 02:58:24;;;;;;;3.25;1.20;;;;;;;16.52;72.06;100829.94;7366330;19;20010;-63
2023/07/26 03:00:54;;;;;;;3.47;0.90;;;;;;;16.52;71.76;100824.63;7359623;19;20011;-62
2023/07/26 03:03:21;;;;;;;12.05;5.57;;;;;;;16.46;71.86;100831.53;7366095;19;20426;-62
2023/07/26 03:05:48;;;;;;;2.25;1.02;;;;;;;16.41;72.01;100828.63;7365620;19;20053;-62
2023/07/26 03:08:16;;;;;;;2.13;0.90;;;;;;;16.36;72.39;100822.22;7362357;19;20034;-63
2023/07/26 03:10:43;;;;;;;3.20;1.10;;;;;;;16.31;72.70;100827.28;7359587;19;20054;-63
2023/07/26 03:13:10;;;;;;;4.93;0.90;;;;;;;16.31;72.90;100837.91;7364657;19;20025;-63
2023/07/26 03:15:40;;;;;;;3.10;1.23;;;;;;;16.33;72.56;100835.91;7364368;19;20779;-63
2023/07/26 03:18:07;;;;;;;4.07;1.00;;;;;;;16.30;72.67;100831.81;7364033;19;20018;-63
2023/07/26 03:20:34;;;;;;;4.15;1.00;;;;;;;16.26;72.71;100839.31;7363996;19;20014;-62
2023/07/26 03:23:01;;;;;;;3.05;1.00;;;;;;;16.30;73.33;100842.44;7365506;19;20027;-64
2023/07/26 03:25:28;;;;;;;2.58;0.90;;;;;;;16.33;73.36;100836.72;7360071;19;20642;-63
2023/07/26 03:27:56;;;;;;;2.95;1.10;;;;;;;16.33;73.07;100842.03;7361058;19;20068;-62
2023/07/26 03:30:23;;;;;;;4.35;1.23;;;;;;;16.23;73.30;100847.66;7361577;19;20805;-62
2023/07/26 03:32:50;;;;;;;4.13;1.35;;;;;;;16.20;73.58;100842.72;7360502;19;20011;-63
2023/07/26 03:35:17;;;;;;;4.68;1.30;;;;;;;16.15;73.68;100836.38;7363674;19;20096;-62
2023/07/26 03:37:44;;;;;;;3.97;1.25;;;;;;;16.15;74.11;100844.31;7363387;19;20042;-62
2023/07/26 03:40:11;;;;;;;3.50;1.20;;;;;;;16.15;74.16;100841.66;7360521;19;21729;-62
2023/07/26 03:42:39;;;;;;;3.65;0.80;;;;;;;16.10;74.55;100849.38;7362899;19;20744;-62
2023/07/26 03:45:07;;;;;;;7.03;1.70;;;;;;;16.07;74.83;100852.38;7361584;19;20014;-63
2023/07/26 03:47:34;;;;;;;4.38;1.42;;;;;;;16.06;75.08;100846.25;7361646;19;20015;-62
2023/07/26 03:50:01;;;;;;;4.80;1.45;;;;;;;16.04;75.28;100842.16;7363336;19;20089;-63
2023/07/26 03:52:28;;;;;;;3.75;1.65;;;;;;;16.01;75.94;100851.31;7363823;19;20122;-62
2023/07/26 03:54:55;;;;;;;3.67;1.15;;;;;;;16.01;76.38;100850.47;7359769;19;20179;-63
2023/07/26 03:57:22;;;;;;;5.70;1.40;;;;;;;16.01;76.00;100847.81;7363540;19;20015;-62
2023/07/26 03:59:49;;;;;;;3.58;1.08;;;;;;;16.03;76.12;100859.09;7359127;19;20107;-62
2023/07/26 04:02:16;;;;;;;3.33;1.30;;;;;;;16.00;76.27;100846.22;7366008;19;20042;-62
2023/07/26 04:04:43;;;;;;;3.03;1.15;;;;;;;15.98;76.04;100851.69;7359616;19;20612;-63
2023/07/26 04:07:10;;;;;;;4.70;1.17;;;;;;;15.96;75.97;100847.56;7364801;19;20055;-62
2023/07/26 04:09:37;;;;;;;4.55;1.30;;;;;;;15.98;77.18;100848.22;7353345;19;20018;-62
2023/07/26 04:12:05;;;;;;;3.10;1.17;;;;;;;15.94;76.49;100850.44;7364104;19;20031;-63
2023/07/26 04:14:32;;;;;;;4.10;1.45;;;;;;;15.93;76.62;100848.78;7359681;19;20142;-65
2023/07/26 04:17:00;;;;;;;5.72;1.48;;;;;;;15.92;77.03;100848.97;7361211;19;20019;-62
2023/07/26 04:19:27;;;;;;;4.03;1.35;;;;;;;15.93;76.76;100850.59;7360699;19;20870;-62
2023/07/26 04:21:54;;;;;;;5.47;1.55;;;;;;;15.94;76.79;100849.59;7365138;19;20380;-62
2023/07/26 04:24:22;;;;;;;4.40;1.42;;;;;;;15.95;76.92;100849.41;7360390;19;20014;-62
2023/07/26 04:26:49;;;;;;;4.78;1.10;;;;;;;15.98;76.70;100853.53;7361393;19;20042;-63
2023/07/26 04:29:16;;;;;;;3.95;1.50;;;;;;;15.99;76.86;100852.50;7361971;19;20502;-62
2023/07/26 04:31:43;;;;;;;3.75;1.20;;;;;;;16.00;76.58;100859.47;7354909;19;20049;-62
2023/07/26 04:34:15;;;;;;;3.97;1.58;;;;;;;16.03;76.80;100859.09;7362251;19;20121;-62
2023/07/26 04:36:43;;;;;;;4.70;1.52;;;;;;;16.01;76.77;100853.97;7360689;19;20031;-62
2023/07/26 04:39:10;;;;;;;4.13;1.42;;;;;;;15.99;77.16;100857.81;7353943;19;20426;-62
2023/07/26 04:41:37;;;;;;;5.65;1.50;;;;;;;15.96;76.94;100864.31;7362822;19;20019;-62
2023/07/26 04:44:04;;;;;;;4.60;1.27;;;;;;;15.93;77.20;100863.88;7361822;19;20106;-62
2023/07/26 04:46:31;;;;;;;7.28;1.13;;;;;;;15.90;77.51;100865.06;7363830;19;20078;-63
2023/07/26 04:49:03;;;;;;;4.55;1.38;;;;;;;15.95;77.81;100867.19;7361409;19;20521;-62
2023/07/26 04:51:30;;;;;;;3.75;1.30;;;;;;;15.94;77.79;100871.66;7359769;19;21893;-62
2023/07/26 04:53:57;;;;;;;3.60;1.52;;;;;;;15.93;77.64;100871.84;7358967;19;20018;-62
2023/07/26 04:56:26;;;;;;;7.05;1.92;;;;;;;15.94;77.53;100873.50;7363060;19;20058;-63
2023/07/26 04:58:56;;;;;;;2.45;1.00;;;;;;;15.90;77.50;100878.31;7358780;19;20041;-62
2023/07/26 05:01:23;;;;;;;4.18;1.30;;;;;;;15.87;77.41;100873.41;7363058;19;20443;-62
2023/07/26 05:03:51;;;;;;;5.05;1.55;;;;;;;15.86;78.21;100870.94;7361434;19;20026;-62
2023/07/26 05:06:18;;;;;;;4.75;1.60;;;;;;;15.86;78.13;100868.28;7362926;19;20916;-63
2023/07/26 05:08:47;;;;;;;3.55;1.45;;;;;;;15.83;77.97;100875.63;7356306;19;20018;-63
2023/07/26 05:11:14;;;;;;;8.35;3.15;;;;;;;15.85;78.39;100879.91;7355751;19;20014;-63
2023/07/26 05:13:41;;;;;;;3.95;1.63;;;;;;;15.87;78.42;100888.50;7357825;19;20011;-63
2023/07/26 05:16:08;;;;;;;5.70;1.95;;;;;;;15.89;78.47;100886.50;7361755;19;20098;-63
2023/07/26 05:18:35;;;;;;;4.57;1.25;;;;;;;15.81;78.26;100885.56;7359094;19;20015;-63
2023/07/26 05:21:02;;;;;;;3.17;1.23;;;;;;;15.83;78.53;100885.41;7362847;19;20733;-62
2023/07/26 05:23:29;;;;;;;3.97;1.35;;;;;;;15.87;78.59;100881.38;7361692;19;20027;-63
2023/07/26 05:25:56;;;;;;;4.13;1.55;;;;;;;15.90;78.66;100882.84;7357038;19;21292;-63
2023/07/26 05:28:24;;;;;;;4.55;1.30;;;;;;;15.90;78.61;100891.59;7361053;19;20106;-63
2023/07/26 05:30:51;;;;;;;5.70;1.42;;;;;;;15.96;79.81;100879.41;7359028;19;20020;-63
2023/07/26 05:33:18;;;;;;;3.17;1.30;;;;;;;15.98;78.80;100880.88;7361330;19;20015;-63
2023/07/26 05:35:45;;;;;;;2.65;1.30;;;;;;;15.97;78.35;100887.19;7361018;19;20097;-63
2023/07/26 05:38:12;;;;;;;3.95;1.10;;;;;;;15.94;78.10;100887.59;7359293;19;20002;-62
2023/07/26 05:40:39;;;;;;;2.63;1.23;;;;;;;15.94;78.05;100878.78;7358549;19;21726;-62
2023/07/26 05:43:06;;;;;;;4.50;1.73;;;;;;;15.93;78.10;100885.09;7360779;19;20010;-64
2023/07/26 05:45:33;;;;;;;3.28;1.20;;;;;;;15.98;78.44;100885.38;7358242;19;20018;-62
2023/07/26 05:48:00;;;;;;;3.58;1.48;;;;;;;15.96;78.22;100890.03;7362086;19;20014;-62
2023/07/26 05:50:27;;;;;;;3.25;1.30;;;;;;;15.94;78.00;100900.84;7358172;19;20093;-63
2023/07/26 05:52:54;;;;;;;5.43;1.40;;;;;;;15.92;78.12;100896.72;7362727;19;20035;-62
2023/07/26 05:55:21;;;;;;;3.55;1.50;;;;;;;15.95;78.16;100893.72;7355602;19;20015;-62
2023/07/26 05:57:48;;;;;;;6.25;1.50;;;;;;;15.98;78.77;100896.81;7358508;19;20062;-64
2023/07/26 06:00:17;;;;;;;4.30;1.10;;;;;;;16.02;78.53;100897.25;7359377;19;20022;-62
2023/07/26 06:02:44;;;;;;;4.10;1.73;;;;;;;16.00;78.31;100889.47;7359469;19;20098;-62
2023/07/26 06:05:11;;;;;;;5.57;1.60;;;;;;;15.98;78.20;100894.16;7358121;19;20034;-63
2023/07/26 06:07:38;;;;;;;4.35;1.70;;;;;;;15.95;78.44;100891.84;7358976;19;20025;-62
2023/07/26 06:10:06;;;;;;;6.57;1.42;;;;;;;16.00;79.47;100893.97;7351477;19;20051;-66
2023/07/26 06:12:33;;;;;;;5.47;1.40;;;;;;;16.03;78.43;100899.72;7357851;19;20011;-62
2023/07/26 06:15:00;;;;;;;3.55;1.35;;;;;;;16.07;78.15;100895.69;7357068;19;20018;-64
2023/07/26 06:17:27;;;;;;;3.95;1.60;;;;;;;16.10;78.04;100895.31;7360341;19;20019;-63
2023/07/26 06:19:54;;;;;;;4.30;1.33;;;;;;;16.17;78.00;100895.38;7359194;19;20042;-62
2023/07/26 06:22:21;;;;;;;3.72;1.40;;;;;;;16.26;78.05;100900.38;7361084;19;20007;-62
2023/07/26 06:24:48;;;;;;;4.10;1.33;;;;;;;16.35;77.34;100897.63;7363035;19;20471;-63
2023/07/26 06:27:28;;;;;;;7.63;1.83;;;;;;;16.41;76.72;100899.50;7364066;19;20027;-62
2023/07/26 06:29:56;;;;;;;5.68;1.65;;;;;;;16.47;76.52;100891.63;7358037;19;20015;-64
2023/07/26 06:32:23;;;;;;;5.05;1.77;;;;;;;16.54;76.40;100889.03;7368711;19;20006;-62
2023/07/26 06:34:50;;;;;;;6.20;1.92;;;;;;;16.55;76.33;100899.47;7366258;19;20006;-63
2023/07/26 06:37:17;;;;;;;5.57;1.63;;;;;;;16.65;76.90;100897.34;7364233;19;20014;-63
2023/07/26 06:39:45;;;;;;;5.63;1.38;;;;;;;16.72;76.27;100888.59;7361279;19;20085;-63
2023/07/26 06:42:12;;;;;;;5.57;1.83;;;;;;;16.76;75.61;100897.84;7366630;19;20010;-63
2023/07/26 06:44:42;;;;;;;4.55;1.48;;;;;;;16.78;75.71;100904.59;7364644;19;20101;-62
2023/07/26 06:47:09;;;;;;;5.30;1.70;;;;;;;16.80;75.46;100896.47;7365384;19;20841;-63
2023/07/26 06:49:36;;;;;;;4.55;1.50;;;;;;;16.80;76.03;100902.59;7363577;19;20086;-64
2023/07/26 06:52:03;;;;;;;5.13;1.75;;;;;;;16.82;75.01;100902.38;7366162;19;20487;-64
2023/07/26 06:54:31;;;;;;;4.63;1.77;;;;;;;16.77;75.06;100905.63;7362468;19;20018;-63
2023/07/26 06:56:57;;;;;;;3.92;1.60;;;;;;;16.78;75.33;100893.16;7364798;19;20026;-62
2023/07/26 06:59:25;;;;;;;4.55;1.48;;;;;;;16.80;75.08;100902.59;7362657;19;20124;-63
2023/07/26 07:01:52;;;;;;;9.52;1.55;;;;;;;16.78;75.13;100899.28;7363442;19;20011;-63
2023/07/26 07:04:19;;;;;;;5.88;1.33;;;;;;;16.80;75.14;100905.25;7362483;19;20022;-63
2023/07/26 07:06:46;;;;;;;4.25;1.80;;;;;;;16.81;75.54;100896.25;7365591;19;20727;-62
2023/07/26 07:09:14;;;;;;;8.80;1.65;;;;;;;16.85;75.59;100888.72;7359086;19;20036;-63
2023/07/26 07:11:41;;;;;;;4.40;1.73;;;;;;;16.90;75.62;100887.13;7360036;19;20015;-62
2023/07/26 07:14:08;;;;;;;4.35;1.30;;;;;;;16.97;75.13;100888.00;7361635;19;20022;-63
2023/07/26 07:16:37;;;;;;;4.95;1.67;;;;;;;17.03;75.60;100889.06;7366741;19;20006;-63
2023/07/26 07:19:04;;;;;;;5.88;1.60;;;;;;;17.08;74.71;100890.13;7362563;19;20600;-63
2023/07/26 07:21:31;;;;;;;4.18;1.45;;;;;;;17.13;74.21;100888.72;7364014;19;20633;-62
2023/07/26 07:23:59;;;;;;;5.07;2.10;;;;;;;17.12;73.69;100887.91;7359059;19;20019;-62
2023/07/26 07:26:26;;;;;;;5.28;1.73;;;;;;;17.15;74.02;100886.69;7364722;19;20511;-64
2023/07/26 07:29:01;;;;;;;3.63;1.40;;;;;;;17.16;74.18;100880.38;7362539;19;20010;-64
2023/07/26 07:31:29;;;;;;;6.70;1.30;;;;;;;17.20;74.54;100887.75;7363847;19;20046;-63
2023/07/26 07:33:57;;;;;;;5.32;1.10;;;;;;;17.22;73.63;100891.03;7361285;19;20662;-63
2023/07/26 07:36:24;;;;;;;4.93;1.55;;;;;;;17.28;72.66;100889.44;7365103;19;20033;-62
2023/07/26 07:38:58;;;;;;;3.03;1.13;;;;;;;17.34;72.58;100893.97;7358453;19;20098;-62
2023/07/26 07:41:25;;;;;;;5.30;1.65;;;;;;;17.42;72.64;100891.19;7362978;19;21035;-63
2023/07/26 07:43:52;;;;;;;5.22;1.52;;;;;;;17.60;72.26;100898.66;7357029;19;20010;-63
2023/07/26 07:46:19;;;;;;;4.90;1.55;;;;;;;17.80;72.53;100897.75;7365323;19;21414;-64
2023/07/26 07:48:53;;;;;;;4.38;1.25;;;;;;;18.03;71.61;100899.28;7362562;19;20010;-64
2023/07/26 07:51:22;;;;;;;4.80;0.90;;;;;;;18.20;70.30;100900.53;7363515;19;20026;-62
2023/07/26 07:53:49;;;;;;;4.65;1.35;;;;;;;18.37;69.68;100896.50;7354614;19;20321;-63
2023/07/26 07:56:16;;;;;;;3.10;1.05;;;;;;;18.61;68.99;100892.47;7365526;19;20102;-63
2023/07/26 07:58:43;;;;;;;4.55;1.00;;;;;;;18.75;68.06;100894.09;7357631;19;20078;-63
2023/07/26 08:01:10;;;;;;;5.75;1.50;;;;;;;19.02;67.92;100894.94;7362348;19;20338;-63
2023/07/26 08:03:37;;;;;;;5.13;1.25;;;;;;;19.09;66.53;100899.25;7362965;19;20046;-63
2023/07/26 08:06:04;;;;;;;5.30;1.00;;;;;;;19.10;66.20;100900.03;7365438;19;20046;-63
2023/07/26 08:08:31;;;;;;;3.85;0.85;;;;;;;19.10;66.49;100900.03;7360173;19;20019;-63
2023/07/26 08:10:58;;;;;;;3.05;0.70;;;;;;;19.00;65.75;100892.47;7361043;19;20345;-62
2023/07/26 08:13:25;;;;;;;4.38;1.00;;;;;;;19.04;67.14;100892.91;7357338;19;20089;-62
2023/07/26 08:15:52;;;;;;;5.22;0.90;;;;;;;18.98;66.59;100901.72;7359664;19;20021;-62
2023/07/26 08:18:19;;;;;;;2.53;0.82;;;;;;;18.98;66.78;100893.72;7359388;19;20498;-63
2023/07/26 08:20:47;;;;;;;3.70;0.80;;;;;;;18.97;65.91;100889.41;7362690;19;20120;-62
2023/07/26 08:23:14;;;;;;;4.50;1.05;;;;;;;18.98;65.58;100891.88;7361130;19;20098;-63
2023/07/26 08:25:42;;;;;;;3.10;0.90;;;;;;;19.06;66.57;100896.16;7356718;19;20045;-62
2023/07/26 08:28:09;;;;;;;3.55;1.27;;;;;;;19.15;67.01;100901.06;7362289;19;20078;-64
2023/07/26 08:30:37;;;;;;;4.72;1.00;;;;;;;19.34;64.93;100899.41;7359620;19;20018;-64
2023/07/26 08:33:04;;;;;;;3.92;1.20;;;;;;;19.43;63.29;100897.34;7361845;19;21221;-62
2023/07/26 08:35:32;;;;;;;2.92;1.00;;;;;;;19.37;63.21;100912.34;7361429;19;20019;-63
2023/07/26 08:37:59;;;;;;;2.75;0.77;;;;;;;19.33;62.20;100908.44;7361726;19;20014;-61
2023/07/26 08:40:26;;;;;;;4.13;0.90;;;;;;;19.25;61.80;100897.97;7357288;19;20101;-62
2023/07/26 08:42:56;;;;;;;3.20;1.08;;;;;;;19.16;60.56;100905.38;7359411;19;20030;-62
2023/07/26 08:45:26;;;;;;;5.57;1.15;;;;;;;19.10;61.13;100900.03;7360463;19;20007;-62
2023/07/26 08:47:54;;;;;;;4.10;1.00;;;;;;;19.11;62.91;100907.03;7362595;19;21759;-61
2023/07/26 08:50:22;;;;;;;5.30;1.92;;;;;;;19.08;63.13;100904.78;7355800;19;20023;-62
2023/07/26 08:52:50;;;;;;;4.43;0.80;;;;;;;19.07;62.90;100895.97;7363655;19;20026;-62
2023/07/26 08:55:18;;;;;;;5.47;1.10;;;;;;;19.09;63.08;100901.91;7353162;19;20743;-62
2023/07/26 08:57:45;;;;;;;2.83;0.90;;;;;;;19.08;61.73;100902.13;7362843;19;20019;-62
2023/07/26 09:00:12;;;;;;;4.22;1.25;;;;;;;19.10;61.08;100906.19;7358220;19;20018;-62
2023/07/26 09:02:44;;;;;;;4.80;1.05;;;;;;;19.13;60.64;100905.81;7361986;19;20086;-63
2023/07/26 09:05:11;;;;;;;4.05;1.15;;;;;;;19.30;59.93;100892.84;7359720;19;20015;-62
2023/07/26 09:07:38;;;;;;;4.45;1.20;;;;;;;19.37;58.63;100884.81;7362405;19;20014;-62
2023/07/26 09:10:06;;;;;;;3.15;0.85;;;;;;;19.38;57.04;100899.81;7354828;19;20596;-62
2023/07/26 09:12:33;;;;;;;3.97;1.00;;;;;;;19.37;57.66;100888.31;7359144;19;20563;-63
2023/07/26 09:15:07;;;;;;;4.22;1.05;;;;;;;19.40;56.16;100887.09;7355267;19;20018;-62
2023/07/26 09:17:43;;;;;;;4.00;0.88;;;;;;;19.47;56.30;100885.25;7363984;19;20021;-63
2023/07/26 09:20:26;;;;;;;4.13;1.02;;;;;;;19.76;55.90;100894.63;7361878;19;20018;-64
2023/07/26 09:22:59;;;;;;;2.83;1.00;;;;;;;20.05;53.09;100886.88;7359975;19;20014;-63
2023/07/26 09:25:45;;;;;;;1.92;0.73;;;;;;;20.34;53.33;100885.50;7356240;19;20014;-62
2023/07/26 09:28:15;;;;;;;2.92;0.85;;;;;;;20.39;52.47;100888.34;7360269;19;20444;-64
2023/07/26 09:30:48;;;;;;;2.88;0.90;;;;;;;20.36;52.28;100887.97;7359164;19;20341;-63
2023/07/26 09:33:16;;;;;;;3.65;1.25;;;;;;;20.28;50.58;100896.19;7362459;19;20037;-62
2023/07/26 09:35:49;;;;;;;2.42;0.80;;;;;;;20.23;52.46;100896.00;7361427;19;20715;-63
2023/07/26 09:38:17;;;;;;;2.97;1.00;;;;;;;20.19;51.03;100890.28;7358769;19;20129;-62
2023/07/26 09:40:45;;;;;;;4.85;1.00;;;;;;;20.19;51.69;100881.44;7353954;19;20022;-67
2023/07/26 09:43:12;;;;;;;4.55;1.08;;;;;;;20.21;52.81;100880.22;7359705;19;20133;-62
2023/07/26 09:45:40;;;;;;;2.50;1.00;;;;;;;20.17;52.39;100883.50;7359798;19;20014;-62
2023/07/26 09:48:11;;;;;;;3.47;1.10;;;;;;;20.19;52.44;100886.78;7361052;19;20562;-62
2023/07/26 09:50:45;;;;;;;3.28;0.80;;;;;;;20.15;53.25;100882.91;7356166;19;20036;-61
2023/07/26 09:53:21;;;;;;;3.75;0.82;;;;;;;20.11;52.19;100879.88;7360056;19;20114;-62
2023/07/26 09:55:49;;;;;;;3.78;0.95;;;;;;;20.12;52.84;100880.66;7354389;19;20533;-62
2023/07/26 09:58:21;;;;;;;3.47;1.30;;;;;;;20.10;53.86;100882.75;7355854;19;20009;-62
2023/07/26 10:00:49;;;;;;;2.88;0.90;;;;;;;20.12;54.49;100880.66;7359868;19;20010;-61
2023/07/26 10:03:19;;;;;;;3.58;1.05;;;;;;;20.16;53.74;100873.88;7359037;19;20531;-61
2023/07/26 10:05:49;;;;;;;3.70;1.27;;;;;;;20.28;51.96;100872.13;7362692;19;20042;-62
2023/07/26 10:08:19;;;;;;;4.47;1.10;;;;;;;20.40;51.84;100870.47;7362361;19;20106;-62
2023/07/26 10:10:47;;;;;;;5.55;1.20;;;;;;;20.47;51.58;100879.22;7359732;19;20018;-63
2023/07/26 10:13:15;;;;;;;3.22;0.98;;;;;;;20.58;51.69;100875.88;7360799;19;20054;-62
2023/07/26 10:15:50;;;;;;;4.13;1.10;;;;;;;20.67;52.41;100871.09;7359098;19;20440;-64
2023/07/26 10:18:20;;;;;;;3.50;1.20;;;;;;;20.84;51.85;100872.16;7364663;19;20654;-63
2023/07/26 10:20:49;;;;;;;2.92;1.10;;;;;;;20.89;49.23;100875.81;7361665;19;20014;-63
2023/07/26 10:23:16;;;;;;;2.97;1.15;;;;;;;20.93;50.63;100869.00;7360943;19;20094;-65
2023/07/26 10:25:44;;;;;;;3.20;1.02;;;;;;;21.00;50.03;100862.78;7354975;19;20090;-64
2023/07/26 10:28:11;;;;;;;4.22;1.08;;;;;;;21.06;50.25;100864.56;7363325;19;20026;-62
2023/07/26 10:30:39;;;;;;;4.28;0.95;;;;;;;21.12;51.27;100861.00;7362674;19;20570;-63
2023/07/26 10:33:13;;;;;;;4.55;1.10;;;;;;;21.18;50.52;100854.81;7358249;19;20006;-63
2023/07/26 10:35:44;;;;;;;4.68;1.00;;;;;;;21.24;49.39;100851.22;7362463;19;20034;-65
2023/07/26 10:38:14;;;;;;;2.95;1.00;;;;;;;21.21;47.46;100854.34;7357804;19;20013;-64
2023/07/26 10:40:43;;;;;;;3.20;0.88;;;;;;;21.13;46.95;100852.75;7354127;19;20014;-63
2023/07/26 10:43:20;;;;;;;3.72;1.40;;;;;;;21.10;49.26;100860.41;7355702;19;20123;-63
2023/07/26 10:45:53;;;;;;;3.80;0.70;;;;;;;21.07;48.18;100852.84;7356483;19;20360;-63
2023/07/26 10:48:27;;;;;;;3.22;1.17;;;;;;;20.97;49.49;100866.72;7356617;19;20050;-64
2023/07/26 10:50:58;;;;;;;3.53;0.90;;;;;;;20.89;50.67;100862.44;7358183;19;20090;-64
2023/07/26 10:53:30;;;;;;;3.28;1.10;;;;;;;20.90;50.56;100860.59;7354959;19;20015;-67
2023/07/26 10:56:10;;;;;;;6.20;1.30;;;;;;;20.90;50.58;100850.72;7356771;19;20018;-64
2023/07/26 10:59:03;;;;;;;3.38;0.98;;;;;;;20.87;51.78;100848.50;7354798;19;20006;-63
2023/07/26 11:01:41;;;;;;;2.97;1.05;;;;;;;20.88;51.23;100839.41;7359272;19;20015;-64
2023/07/26 11:04:13;;;;;;;2.75;1.10;;;;;;;20.86;51.07;100838.81;7354645;19;20019;-63
2023/07/26 11:06:54;;;;;;;3.20;1.27;;;;;;;20.93;50.72;100830.72;7355528;19;20103;-63
2023/07/26 11:09:25;;;;;;;3.80;1.00;;;;;;;20.92;49.03;100840.63;7331562;19;20019;-63
2023/07/26 11:11:58;;;;;;;3.00;0.88;;;;;;;21.03;49.48;100840.94;7360305;19;20014;-64
2023/07/26 11:14:30;;;;;;;3.67;0.90;;;;;;;21.09;49.25;100837.34;7360977;19;20620;-63
2023/07/26 11:17:01;;;;;;;5.30;0.93;;;;;;;21.11;48.62;100840.63;7359308;19;20042;-64
2023/07/26 11:19:29;;;;;;;3.33;1.02;;;;;;;21.17;48.63;100837.94;7364759;19;20022;-64
2023/07/26 11:22:06;;;;;;;1.80;0.70;;;;;;;21.23;47.88;100836.22;7362733;19;20082;-64
2023/07/26 11:24:33;;;;;;;2.05;0.60;;;;;;;21.28;46.19;100844.41;7360905;19;20088;-64
2023/07/26 11:27:05;;;;;;;2.45;0.90;;;;;;;21.31;46.28;100835.91;7360625;19;20027;-64
2023/07/26 11:29:33;;;;;;;2.40;0.68;;;;;;;21.36;44.78;100827.22;7361281;19;20503;-63